Weather at Boone County Airport

Public forecast

Using degrees Fahrenheit for public forecast. Weather courtesy of forecast.io.

Current aviation weather report (METAR) for Boone County Airport

Retrieved 2020/09/29 16:53 UTC (23 minutes ago):

KHRO 291653Z AUTO 32010G21KT 10SM CLR 18/04 A3009 RMK AO2 SLP184 T01780044

Aviation forecast (TAF) for Boone County Airport

Retrieved 2020/09/29 12:22 UTC (5 hours ago):

TAF KHRO 291120Z 2912/3012 VRB04KT P6SM SKC FM291600 31008G15KT P6SM FEW250 FM300400 27007KT P6SM SKC